createdAt,value
2024-03-07T00:01:48.296Z,11.13
2024-03-07T00:04:16.649Z,10.23
2024-03-07T00:06:44.839Z,10.17
2024-03-07T00:09:13.037Z,14.70
2024-03-07T00:11:42.044Z,10.57
2024-03-07T00:14:11.728Z,11.80
2024-03-07T00:16:41.272Z,11.60
2024-03-07T00:19:09.570Z,16.10
2024-03-07T00:21:37.773Z,11.50
2024-03-07T00:24:07.143Z,12.07
2024-03-07T00:26:37.456Z,11.13
2024-03-07T00:29:07.661Z,18.10
2024-03-07T00:31:37.212Z,11.97
2024-03-07T00:34:12.954Z,7.00
2024-03-07T00:36:44.987Z,7.53
2024-03-07T00:39:13.416Z,8.93
2024-03-07T00:41:42.222Z,10.60
2024-03-07T00:44:11.154Z,10.47
2024-03-07T00:46:40.785Z,9.07
2024-03-07T00:49:09.108Z,13.07
2024-03-07T00:51:38.604Z,10.10
2024-03-07T00:54:08.629Z,9.43
2024-03-07T00:56:37.676Z,10.43
2024-03-07T00:59:06.717Z,12.07
2024-03-07T01:01:39.136Z,13.33
2024-03-07T01:04:08.796Z,13.50
2024-03-07T01:06:38.333Z,9.83
2024-03-07T01:09:14.440Z,11.17
2024-03-07T01:11:45.255Z,8.87
2024-03-07T01:14:14.692Z,12.83
2024-03-07T01:16:43.086Z,6.07
2024-03-07T01:19:12.692Z,9.20
2024-03-07T01:21:41.266Z,12.23
2024-03-07T01:24:10.216Z,9.80
2024-03-07T01:26:38.627Z,9.90
2024-03-07T01:29:08.339Z,9.30
2024-03-07T01:31:36.864Z,7.40
2024-03-07T01:34:05.454Z,7.03
2024-03-07T01:36:35.058Z,9.20
2024-03-07T01:39:04.809Z,7.73
2024-03-07T01:41:35.575Z,10.47
2024-03-07T01:44:04.003Z,9.30
2024-03-07T01:46:32.436Z,7.57
2024-03-07T01:49:00.857Z,10.27
2024-03-07T01:51:29.361Z,4.07
2024-03-07T01:53:58.933Z,7.20
2024-03-07T01:56:27.569Z,7.70
2024-03-07T01:58:56.933Z,7.83
2024-03-07T02:01:25.313Z,9.33
2024-03-07T02:03:53.482Z,10.40
2024-03-07T02:06:21.816Z,9.17
2024-03-07T02:08:50.193Z,14.60
2024-03-07T02:11:20.045Z,8.07
2024-03-07T02:13:48.514Z,9.37
2024-03-07T02:16:17.932Z,4.23
2024-03-07T02:18:47.041Z,9.63
2024-03-07T02:21:16.656Z,8.00
2024-03-07T02:23:44.986Z,4.80
2024-03-07T02:26:13.681Z,10.30
2024-03-07T02:28:41.940Z,5.53
2024-03-07T02:31:10.214Z,5.30
2024-03-07T02:33:38.429Z,8.20
2024-03-07T02:36:08.430Z,8.00
2024-03-07T02:38:38.029Z,3.63
2024-03-07T02:41:07.338Z,3.93
2024-03-07T02:43:39.075Z,3.30
2024-03-07T02:46:07.606Z,4.90
2024-03-07T02:48:36.023Z,5.37
2024-03-07T02:51:06.962Z,6.60
2024-03-07T02:53:35.340Z,4.53
2024-03-07T02:56:09.017Z,2.90
2024-03-07T02:58:37.575Z,2.80
2024-03-07T03:01:06.822Z,5.90
2024-03-07T03:03:35.085Z,5.07
2024-03-07T03:06:03.610Z,5.90
2024-03-07T03:08:31.877Z,8.57
2024-03-07T03:11:00.129Z,5.20
2024-03-07T03:13:29.932Z,3.03
2024-03-07T03:15:58.651Z,6.53
2024-03-07T03:18:27.254Z,4.53
2024-03-07T03:20:55.559Z,4.47
2024-03-07T03:23:23.814Z,2.43
2024-03-07T03:25:52.229Z,2.53
2024-03-07T03:28:22.046Z,6.27
2024-03-07T03:30:52.927Z,3.90
2024-03-07T03:33:22.792Z,5.43
2024-03-07T03:35:52.663Z,4.40
2024-03-07T03:38:21.222Z,3.70
2024-03-07T03:40:49.648Z,5.10
2024-03-07T03:43:17.856Z,6.13
2024-03-07T03:45:46.598Z,5.43
2024-03-07T03:48:16.288Z,2.33
2024-03-07T03:50:44.806Z,3.77
2024-03-07T03:53:13.101Z,2.67
2024-03-07T03:55:41.338Z,4.73
2024-03-07T03:58:10.476Z,4.70
2024-03-07T04:00:40.502Z,2.83
2024-03-07T04:03:09.270Z,1.93
2024-03-07T04:05:38.875Z,3.07
2024-03-07T04:08:08.504Z,2.73
2024-03-07T04:10:36.731Z,2.37
2024-03-07T04:13:05.545Z,2.20
2024-03-07T04:15:36.482Z,3.43
2024-03-07T04:18:06.447Z,5.20
2024-03-07T04:20:34.873Z,3.83
2024-03-07T04:23:04.846Z,1.97
2024-03-07T04:25:34.141Z,4.00
2024-03-07T04:28:04.122Z,2.63
2024-03-07T04:30:32.364Z,2.87
2024-03-07T04:33:00.797Z,3.07
2024-03-07T04:35:29.081Z,4.57
2024-03-07T04:37:57.268Z,5.20
2024-03-07T04:40:26.816Z,2.43
2024-03-07T04:42:55.021Z,2.27
2024-03-07T04:45:23.256Z,3.70
2024-03-07T04:47:51.718Z,4.30
2024-03-07T04:50:20.800Z,3.03
2024-03-07T04:52:50.598Z,4.20
2024-03-07T04:55:19.752Z,1.67
2024-03-07T04:57:49.609Z,4.00
2024-03-07T05:00:20.810Z,5.13
2024-03-07T05:02:51.569Z,2.10
2024-03-07T05:05:23.799Z,1.80
2024-03-07T05:07:53.036Z,3.70
2024-03-07T05:10:21.779Z,2.37
2024-03-07T05:12:51.777Z,4.27
2024-03-07T05:15:20.413Z,2.10
2024-03-07T05:17:48.757Z,3.33
2024-03-07T05:20:17.230Z,1.80
2024-03-07T05:22:51.768Z,1.30
2024-03-07T05:25:20.830Z,1.93
2024-03-07T05:27:51.374Z,2.30
2024-03-07T05:30:23.147Z,4.10
2024-03-07T05:32:51.579Z,1.93
2024-03-07T05:35:22.100Z,3.80
2024-03-07T05:37:52.275Z,1.80
2024-03-07T05:40:21.257Z,0.93
2024-03-07T05:42:49.526Z,2.93
2024-03-07T05:45:19.205Z,2.47
2024-03-07T05:47:50.328Z,1.13
2024-03-07T05:50:19.373Z,1.73
2024-03-07T05:52:49.637Z,3.27
2024-03-07T05:55:20.750Z,4.53
2024-03-07T05:57:49.261Z,1.40
2024-03-07T06:00:28.278Z,1.30
2024-03-07T06:02:59.140Z,3.17
2024-03-07T06:05:28.272Z,1.43
2024-03-07T06:07:57.612Z,2.30
2024-03-07T06:10:26.328Z,5.50
2024-03-07T06:15:26.586Z,1.87
2024-03-07T06:17:55.127Z,4.00
2024-03-07T06:20:25.766Z,2.33
2024-03-07T06:22:54.273Z,2.13
2024-03-07T06:25:34.831Z,0.90
2024-03-07T06:28:10.378Z,3.27
2024-03-07T06:30:38.905Z,2.03
2024-03-07T06:33:07.452Z,1.00
2024-03-07T06:35:38.230Z,2.93
2024-03-07T06:38:06.746Z,2.70
2024-03-07T06:40:35.150Z,2.63
2024-03-07T06:43:04.923Z,2.03
2024-03-07T06:45:33.241Z,1.00
2024-03-07T06:48:01.640Z,2.10
2024-03-07T06:50:36.967Z,4.20
2024-03-07T06:53:09.276Z,2.27
2024-03-07T06:55:38.512Z,4.30
2024-03-07T06:58:07.340Z,4.20
2024-03-07T07:00:37.879Z,3.23
2024-03-07T07:03:07.860Z,1.97
2024-03-07T07:05:36.984Z,2.00
2024-03-07T07:08:07.872Z,2.97
2024-03-07T07:10:38.501Z,2.17
2024-03-07T07:13:06.749Z,1.87
2024-03-07T07:15:35.523Z,5.10
2024-03-07T07:18:04.455Z,1.17
2024-03-07T07:20:35.498Z,1.27
2024-03-07T07:23:05.030Z,1.27
2024-03-07T07:25:33.677Z,2.30
2024-03-07T07:28:05.972Z,3.33
2024-03-07T07:30:34.690Z,2.00
2024-03-07T07:33:03.206Z,1.90
2024-03-07T07:35:32.378Z,2.13
2024-03-07T07:38:00.899Z,3.60
2024-03-07T07:40:29.407Z,2.03
2024-03-07T07:42:57.782Z,3.40
2024-03-07T07:45:27.824Z,2.50
2024-03-07T07:47:56.657Z,1.90
2024-03-07T07:50:26.621Z,2.17
2024-03-07T07:52:56.464Z,4.23
2024-03-07T07:55:26.324Z,2.70
2024-03-07T07:57:56.037Z,3.30
2024-03-07T08:00:25.871Z,3.30
2024-03-07T08:02:56.871Z,4.87
2024-03-07T08:05:26.110Z,5.03
2024-03-07T08:07:55.784Z,3.43
2024-03-07T08:10:27.355Z,1.97
2024-03-07T08:12:55.638Z,2.57
2024-03-07T08:15:24.492Z,2.27
2024-03-07T08:17:53.341Z,2.67
2024-03-07T08:20:24.260Z,3.73
2024-03-07T08:22:54.754Z,4.10
2024-03-07T08:25:24.637Z,3.03
2024-03-07T08:27:54.941Z,1.27
2024-03-07T08:30:23.945Z,1.57
2024-03-07T08:32:54.338Z,5.27
2024-03-07T08:35:24.619Z,3.37
2024-03-07T08:37:55.704Z,2.90
2024-03-07T08:40:28.870Z,1.87
2024-03-07T08:42:58.842Z,5.93
2024-03-07T08:45:28.210Z,7.50
2024-03-07T08:47:59.108Z,5.70
2024-03-07T08:50:31.121Z,3.70
2024-03-07T08:52:59.350Z,4.07
2024-03-07T08:55:27.933Z,5.93
2024-03-07T08:57:56.785Z,5.80
2024-03-07T09:00:27.441Z,4.17
2024-03-07T09:02:59.590Z,4.07
2024-03-07T09:05:30.966Z,6.87
2024-03-07T09:08:00.477Z,3.90
2024-03-07T09:10:31.466Z,4.23
2024-03-07T09:13:00.839Z,4.30
2024-03-07T09:15:29.478Z,6.70
2024-03-07T09:17:59.518Z,3.57
2024-03-07T09:20:28.525Z,4.90
2024-03-07T09:22:58.181Z,5.63
2024-03-07T09:25:27.045Z,3.67
2024-03-07T09:27:56.649Z,6.67
2024-03-07T09:30:28.494Z,4.77
2024-03-07T09:32:57.371Z,4.37
2024-03-07T09:35:25.958Z,5.50
2024-03-07T09:37:54.922Z,4.00
2024-03-07T09:40:27.812Z,4.20
2024-03-07T09:42:59.506Z,4.03
2024-03-07T09:45:33.452Z,3.90
2024-03-07T09:48:03.704Z,4.43
2024-03-07T09:50:32.827Z,2.80
2024-03-07T09:53:02.547Z,2.80
2024-03-07T09:55:33.270Z,4.33
2024-03-07T09:58:03.057Z,5.00
2024-03-07T10:00:32.193Z,2.43
2024-03-07T10:03:03.976Z,3.80
2024-03-07T10:05:33.412Z,3.80
2024-03-07T10:08:03.128Z,2.60
2024-03-07T10:10:33.166Z,2.80
2024-03-07T10:13:02.283Z,3.57
2024-03-07T10:15:31.128Z,2.73
2024-03-07T10:18:00.389Z,2.83
2024-03-07T10:20:29.110Z,2.60
2024-03-07T10:22:57.920Z,2.83
2024-03-07T10:25:28.832Z,4.60
2024-03-07T10:28:00.627Z,3.47
2024-03-07T10:30:29.389Z,3.40
2024-03-07T10:33:01.744Z,3.70
2024-03-07T10:35:32.777Z,3.93
2024-03-07T10:38:02.659Z,4.63
2024-03-07T10:40:31.730Z,4.43
2024-03-07T10:43:04.433Z,4.10
2024-03-07T10:45:36.902Z,4.33
2024-03-07T10:48:10.064Z,4.03
2024-03-07T10:50:50.121Z,2.03
2024-03-07T10:53:27.084Z,2.00
2024-03-07T10:56:14.627Z,2.97
2024-03-07T10:58:58.714Z,2.27
2024-03-07T11:01:32.552Z,2.50
2024-03-07T11:04:02.217Z,2.40
2024-03-07T11:06:30.879Z,3.60
2024-03-07T11:09:00.765Z,1.87
2024-03-07T11:11:30.240Z,1.50
2024-03-07T11:14:00.234Z,2.97
2024-03-07T11:16:29.215Z,2.77
2024-03-07T11:19:22.356Z,2.30
2024-03-07T11:21:50.722Z,3.10
2024-03-07T11:24:25.916Z,3.50
2024-03-07T11:26:55.944Z,2.50
2024-03-07T11:29:54.126Z,4.20
2024-03-07T11:32:24.602Z,2.90
2024-03-07T11:34:55.963Z,2.67
2024-03-07T11:37:42.251Z,4.10
2024-03-07T11:40:19.506Z,2.70
2024-03-07T11:42:51.315Z,2.90
2024-03-07T11:45:27.165Z,2.70
2024-03-07T11:48:01.397Z,3.87
2024-03-07T11:50:30.029Z,1.47
2024-03-07T11:52:58.599Z,1.87
2024-03-07T11:55:29.581Z,2.70
2024-03-07T11:57:58.003Z,3.00
2024-03-07T12:00:35.722Z,3.03
2024-03-07T12:03:07.071Z,1.53
2024-03-07T12:05:35.712Z,5.00
2024-03-07T12:08:06.890Z,2.50
2024-03-07T12:10:35.167Z,3.33
2024-03-07T12:13:05.149Z,3.23
2024-03-07T12:15:35.764Z,3.53
2024-03-07T12:18:09.873Z,3.00
2024-03-07T12:20:39.450Z,3.87
2024-03-07T12:23:09.630Z,3.30
2024-03-07T12:25:38.491Z,2.37
2024-03-07T12:28:12.056Z,2.87
2024-03-07T12:30:52.281Z,5.30
2024-03-07T12:33:21.642Z,2.40
2024-03-07T12:35:53.057Z,4.23
2024-03-07T12:38:24.006Z,2.83
2024-03-07T12:41:06.909Z,3.33
2024-03-07T12:43:35.684Z,2.30
2024-03-07T12:46:07.732Z,3.20
2024-03-07T12:48:39.837Z,1.80
2024-03-07T12:51:08.682Z,3.20
2024-03-07T12:53:37.072Z,2.90
2024-03-07T12:56:05.780Z,2.40
2024-03-07T12:58:34.373Z,3.10
2024-03-07T13:01:03.195Z,6.10
2024-03-07T13:03:33.023Z,4.10
2024-03-07T13:06:03.038Z,2.00
2024-03-07T13:08:32.416Z,3.27
2024-03-07T13:11:01.800Z,3.77
2024-03-07T13:13:31.838Z,2.40
2024-03-07T13:16:00.773Z,2.10
2024-03-07T13:18:29.243Z,1.70
2024-03-07T13:20:58.878Z,2.90
2024-03-07T13:23:29.190Z,5.17
2024-03-07T13:25:58.116Z,5.13
2024-03-07T13:28:29.584Z,3.57
2024-03-07T13:30:57.867Z,2.60
2024-03-07T13:33:27.009Z,2.37
2024-03-07T13:35:55.499Z,2.23
2024-03-07T13:38:27.167Z,3.40
2024-03-07T13:40:55.488Z,3.50
2024-03-07T13:43:23.671Z,3.03
2024-03-07T13:45:52.528Z,4.70
2024-03-07T13:48:21.565Z,3.97
2024-03-07T13:50:57.720Z,2.97
2024-03-07T13:53:34.828Z,2.40
2024-03-07T13:56:26.936Z,3.57
2024-03-07T13:59:16.486Z,3.30
2024-03-07T14:01:58.081Z,3.70
2024-03-07T14:04:47.670Z,3.27
2024-03-07T14:07:46.575Z,1.87
2024-03-07T14:10:57.336Z,1.70
2024-03-07T14:13:50.396Z,3.03
2024-03-07T14:16:41.470Z,1.80
2024-03-07T14:19:48.254Z,5.07
2024-03-07T14:22:33.699Z,2.83
2024-03-07T14:25:26.031Z,1.90
2024-03-07T14:28:14.222Z,2.13
2024-03-07T14:30:46.260Z,1.43
2024-03-07T14:33:15.506Z,3.80
2024-03-07T14:36:04.985Z,1.60
2024-03-07T14:38:46.896Z,2.30
2024-03-07T14:41:16.255Z,2.60
2024-03-07T14:43:46.599Z,1.87
2024-03-07T14:46:17.910Z,2.90
2024-03-07T14:48:46.258Z,1.60
2024-03-07T14:51:15.874Z,2.20
2024-03-07T14:53:45.181Z,1.73
2024-03-07T14:56:13.566Z,1.80
2024-03-07T14:58:42.939Z,3.33
2024-03-07T15:01:13.298Z,1.40
2024-03-07T15:03:46.745Z,4.53
2024-03-07T15:06:16.748Z,2.10
2024-03-07T15:08:44.977Z,3.33
2024-03-07T15:11:22.322Z,4.87
2024-03-07T15:13:50.792Z,3.87
2024-03-07T15:16:29.605Z,2.77
2024-03-07T15:19:02.260Z,3.43
2024-03-07T15:21:31.250Z,3.20
2024-03-07T15:24:00.532Z,2.17
2024-03-07T15:26:29.488Z,3.43
2024-03-07T15:28:58.240Z,3.10
2024-03-07T15:31:27.832Z,3.17
2024-03-07T15:33:56.352Z,2.13
2024-03-07T15:36:26.770Z,1.83
2024-03-07T15:38:55.201Z,4.03
2024-03-07T15:41:23.581Z,3.00
2024-03-07T15:43:51.847Z,1.73
2024-03-07T15:46:20.233Z,2.30
2024-03-07T15:48:50.725Z,1.43
2024-03-07T15:51:20.027Z,2.50
2024-03-07T15:53:48.497Z,3.20
2024-03-07T15:56:17.427Z,3.50
2024-03-07T15:58:46.580Z,2.10
2024-03-07T16:01:17.854Z,1.37
2024-03-07T16:03:47.955Z,1.47
2024-03-07T16:06:18.283Z,2.13
2024-03-07T16:08:46.724Z,2.43
2024-03-07T16:11:15.213Z,3.07
2024-03-07T16:13:45.108Z,2.07
2024-03-07T16:16:14.331Z,2.77
2024-03-07T16:18:44.502Z,1.93
2024-03-07T16:21:12.965Z,2.57
2024-03-07T16:23:43.602Z,3.27
2024-03-07T16:26:11.876Z,2.00
2024-03-07T16:28:40.094Z,4.93
2024-03-07T16:31:10.256Z,2.70
2024-03-07T16:33:38.687Z,3.37
2024-03-07T16:36:07.529Z,1.93
2024-03-07T16:38:36.470Z,0.97
2024-03-07T16:41:07.174Z,1.70
2024-03-07T16:43:38.336Z,2.83
2024-03-07T16:46:07.374Z,2.33
2024-03-07T16:48:36.541Z,2.43
2024-03-07T16:51:05.444Z,3.33
2024-03-07T16:53:35.175Z,2.90
2024-03-07T16:56:05.092Z,1.50
2024-03-07T16:58:37.931Z,1.80
2024-03-07T17:01:07.086Z,3.00
2024-03-07T17:03:35.448Z,1.80
2024-03-07T17:06:08.970Z,2.67
2024-03-07T17:08:38.195Z,3.93
2024-03-07T17:11:07.886Z,2.60
2024-03-07T17:13:38.104Z,1.73
2024-03-07T17:16:06.722Z,2.87
2024-03-07T17:18:36.548Z,1.70
2024-03-07T17:21:07.637Z,2.27
2024-03-07T17:23:35.997Z,3.33
2024-03-07T17:26:04.528Z,1.83
2024-03-07T17:28:32.772Z,4.80
2024-03-07T17:31:02.298Z,2.53
2024-03-07T17:33:30.666Z,1.40
2024-03-07T17:35:59.244Z,4.07
2024-03-07T17:38:28.246Z,1.63
2024-03-07T17:40:56.802Z,1.50
2024-03-07T17:43:25.052Z,1.33
2024-03-07T17:45:53.252Z,3.57
2024-03-07T17:48:26.767Z,3.87
2024-03-07T17:50:55.504Z,1.13
2024-03-07T17:53:27.211Z,2.77
2024-03-07T17:55:56.862Z,3.00
2024-03-07T17:58:26.158Z,1.77
2024-03-07T18:00:55.683Z,3.30
2024-03-07T18:03:25.373Z,2.60
2024-03-07T18:05:54.585Z,3.07
2024-03-07T18:08:35.467Z,2.47
2024-03-07T18:11:14.709Z,3.23
2024-03-07T18:13:44.515Z,2.10
2024-03-07T18:16:15.309Z,3.87
2024-03-07T18:18:47.182Z,0.97
2024-03-07T18:21:16.018Z,4.27
2024-03-07T18:23:46.436Z,4.30
2024-03-07T18:26:15.636Z,3.50
2024-03-07T18:28:44.960Z,3.03
2024-03-07T18:31:16.644Z,3.63
2024-03-07T18:33:46.636Z,2.63
2024-03-07T18:36:15.058Z,1.53
2024-03-07T18:38:44.928Z,2.00
2024-03-07T18:41:13.992Z,4.80
2024-03-07T18:43:42.838Z,3.37
2024-03-07T18:46:12.046Z,2.57
2024-03-07T18:48:40.588Z,3.43
2024-03-07T18:51:10.437Z,2.47
2024-03-07T18:53:38.915Z,2.87
2024-03-07T18:56:11.877Z,2.80
2024-03-07T18:58:40.512Z,3.80
2024-03-07T19:01:09.636Z,2.83
2024-03-07T19:03:38.474Z,1.20
2024-03-07T19:06:09.670Z,2.03
2024-03-07T19:08:40.573Z,3.93
2024-03-07T19:11:09.415Z,1.83
2024-03-07T19:13:38.075Z,2.60
2024-03-07T19:16:09.918Z,2.70
2024-03-07T19:18:38.537Z,4.10
2024-03-07T19:21:11.274Z,2.00
2024-03-07T19:23:46.471Z,1.33
2024-03-07T19:26:20.406Z,2.70
2024-03-07T19:28:49.186Z,1.23
2024-03-07T19:31:17.619Z,2.00
2024-03-07T19:33:46.290Z,1.80
2024-03-07T19:36:15.915Z,1.90
2024-03-07T19:38:48.793Z,2.90
2024-03-07T19:41:17.718Z,2.07
2024-03-07T19:43:45.995Z,2.33
2024-03-07T19:46:14.388Z,3.10
2024-03-07T19:48:44.081Z,2.90
2024-03-07T19:51:12.999Z,2.30
2024-03-07T19:53:41.563Z,1.80
2024-03-07T19:56:13.850Z,2.30
2024-03-07T19:58:42.578Z,1.90
2024-03-07T20:01:12.998Z,0.67
2024-03-07T20:03:41.851Z,1.70
2024-03-07T20:06:11.392Z,1.40
2024-03-07T20:08:40.121Z,1.10
2024-03-07T20:11:08.868Z,1.27
2024-03-07T20:13:41.332Z,1.90
2024-03-07T20:16:10.362Z,3.73
2024-03-07T20:18:41.379Z,1.00
2024-03-07T20:21:10.790Z,0.80
2024-03-07T20:23:41.530Z,2.10
2024-03-07T20:26:10.079Z,1.57
2024-03-07T20:28:39.767Z,1.87
2024-03-07T20:31:09.599Z,3.77
2024-03-07T20:33:38.869Z,0.60
2024-03-07T20:36:10.983Z,2.30
2024-03-07T20:38:40.470Z,3.77
2024-03-07T20:41:08.733Z,1.43
2024-03-07T20:43:39.004Z,1.43
2024-03-07T20:46:08.477Z,2.50
2024-03-07T20:48:37.782Z,1.67
2024-03-07T20:51:07.550Z,1.80
2024-03-07T20:53:36.170Z,0.90
2024-03-07T20:56:07.897Z,1.93
2024-03-07T20:58:37.367Z,1.87
2024-03-07T21:01:10.566Z,1.17
2024-03-07T21:03:42.690Z,3.47
2024-03-07T21:06:11.636Z,0.50
2024-03-07T21:08:40.901Z,2.60
2024-03-07T21:11:10.494Z,0.90
2024-03-07T21:13:40.682Z,1.60
2024-03-07T21:16:12.696Z,0.63
2024-03-07T21:18:41.641Z,4.20
2024-03-07T21:21:10.078Z,2.43
2024-03-07T21:23:41.260Z,1.97
2024-03-07T21:26:12.926Z,0.97
2024-03-07T21:28:41.932Z,2.10
2024-03-07T21:31:11.657Z,1.93
2024-03-07T21:33:41.052Z,2.27
2024-03-07T21:36:10.735Z,1.43
2024-03-07T21:38:39.362Z,0.40
2024-03-07T21:41:09.924Z,1.67
2024-03-07T21:43:38.785Z,2.17
2024-03-07T21:46:07.377Z,3.10
2024-03-07T21:48:37.094Z,0.83
2024-03-07T21:51:08.100Z,1.37
2024-03-07T21:53:40.910Z,0.50
2024-03-07T21:56:09.532Z,0.77
2024-03-07T21:58:37.723Z,0.70
2024-03-07T22:01:09.844Z,2.00
2024-03-07T22:03:42.876Z,0.97
2024-03-07T22:06:11.960Z,1.07
2024-03-07T22:08:40.383Z,1.63
2024-03-07T22:11:15.933Z,0.93
2024-03-07T22:13:45.914Z,1.43
2024-03-07T22:16:14.169Z,1.20
2024-03-07T22:18:44.394Z,1.00
2024-03-07T22:21:13.540Z,1.30
2024-03-07T22:23:41.872Z,0.83
2024-03-07T22:26:12.994Z,1.97
2024-03-07T22:28:41.273Z,2.47
2024-03-07T22:31:10.994Z,1.33
2024-03-07T22:33:39.452Z,0.87
2024-03-07T22:36:10.591Z,1.43
2024-03-07T22:38:38.952Z,3.07
2024-03-07T22:41:07.720Z,1.77
2024-03-07T22:43:36.000Z,1.87
2024-03-07T22:46:05.360Z,2.10
2024-03-07T22:48:36.451Z,2.30
2024-03-07T22:51:06.833Z,1.53
2024-03-07T22:53:36.906Z,1.87
2024-03-07T22:56:06.156Z,3.63
2024-03-07T22:58:34.440Z,1.27
2024-03-07T23:01:05.530Z,2.60
2024-03-07T23:03:33.939Z,1.17
2024-03-07T23:06:02.381Z,2.00
2024-03-07T23:08:30.758Z,1.10
2024-03-07T23:11:00.538Z,1.70
2024-03-07T23:13:29.756Z,0.50
2024-03-07T23:15:59.046Z,1.33
2024-03-07T23:18:27.434Z,1.80
2024-03-07T23:20:55.717Z,2.03
2024-03-07T23:23:25.163Z,1.40
2024-03-07T23:25:53.434Z,1.60
2024-03-07T23:28:22.974Z,0.77
2024-03-07T23:30:51.950Z,1.80
2024-03-07T23:33:21.546Z,1.07
2024-03-07T23:35:50.126Z,2.23
2024-03-07T23:38:18.400Z,0.70
2024-03-07T23:40:46.689Z,0.70
2024-03-07T23:43:15.029Z,0.87
2024-03-07T23:45:44.608Z,1.80
2024-03-07T23:48:12.938Z,2.47
2024-03-07T23:53:10.305Z,0.87
2024-03-07T23:55:38.528Z,0.40
2024-03-07T23:58:06.755Z,2.27
